sensor_id;sensor_type;location;lat;lon;timestamp;P1;durP1;ratioP1;P2;durP2;ratioP2
71048;SDS011;58704;53.358;-6.238;2022-12-29T00:01:36;4.00;;;1.80;;
71048;SDS011;58704;53.358;-6.238;2022-12-29T00:04:02;6.40;;;1.65;;
71048;SDS011;58704;53.358;-6.238;2022-12-29T00:06:27;4.65;;;1.80;;
71048;SDS011;58704;53.358;-6.238;2022-12-29T00:08:53;7.00;;;1.50;;
71048;SDS011;58704;53.358;-6.238;2022-12-29T00:11:23;3.77;;;1.87;;
71048;SDS011;58704;53.358;-6.238;2022-12-29T00:13:50;4.72;;;1.42;;
71048;SDS011;58704;53.358;-6.238;2022-12-29T00:16:34;6.70;;;1.73;;
71048;SDS011;58704;53.358;-6.238;2022-12-29T00:19:00;10.73;;;2.00;;
71048;SDS011;58704;53.358;-6.238;2022-12-29T00:21:26;5.87;;;2.37;;
71048;SDS011;58704;53.358;-6.238;2022-12-29T00:24:17;5.40;;;1.60;;
71048;SDS011;58704;53.358;-6.238;2022-12-29T00:27:11;2.78;;;1.40;;
71048;SDS011;58704;53.358;-6.238;2022-12-29T00:29:55;5.55;;;1.92;;
71048;SDS011;58704;53.358;-6.238;2022-12-29T00:32:39;4.67;;;1.50;;
71048;SDS011;58704;53.358;-6.238;2022-12-29T00:35:28;4.80;;;1.90;;
71048;SDS011;58704;53.358;-6.238;2022-12-29T00:37:55;5.72;;;1.73;;
71048;SDS011;58704;53.358;-6.238;2022-12-29T00:40:41;5.85;;;1.50;;
71048;SDS011;58704;53.358;-6.238;2022-12-29T00:43:25;10.23;;;2.00;;
71048;SDS011;58704;53.358;-6.238;2022-12-29T00:46:08;7.40;;;2.00;;
71048;SDS011;58704;53.358;-6.238;2022-12-29T00:48:34;4.60;;;1.50;;
71048;SDS011;58704;53.358;-6.238;2022-12-29T00:51:18;5.93;;;1.70;;
71048;SDS011;58704;53.358;-6.238;2022-12-29T00:53:43;5.78;;;1.55;;
71048;SDS011;58704;53.358;-6.238;2022-12-29T00:56:09;4.73;;;1.50;;
71048;SDS011;58704;53.358;-6.238;2022-12-29T00:58:34;4.57;;;1.47;;
71048;SDS011;58704;53.358;-6.238;2022-12-29T01:01:07;6.63;;;1.73;;
71048;SDS011;58704;53.358;-6.238;2022-12-29T01:03:36;5.70;;;1.50;;
71048;SDS011;58704;53.358;-6.238;2022-12-29T01:06:03;9.90;;;1.42;;
71048;SDS011;58704;53.358;-6.238;2022-12-29T01:08:29;2.40;;;1.40;;
71048;SDS011;58704;53.358;-6.238;2022-12-29T01:11:13;4.57;;;1.37;;
71048;SDS011;58704;53.358;-6.238;2022-12-29T01:13:39;4.75;;;1.35;;
71048;SDS011;58704;53.358;-6.238;2022-12-29T01:16:07;6.10;;;1.45;;
71048;SDS011;58704;53.358;-6.238;2022-12-29T01:18:33;6.63;;;1.03;;
71048;SDS011;58704;53.358;-6.238;2022-12-29T01:20:59;2.25;;;1.00;;
71048;SDS011;58704;53.358;-6.238;2022-12-29T01:23:26;9.65;;;1.77;;
71048;SDS011;58704;53.358;-6.238;2022-12-29T01:25:51;4.20;;;1.30;;
71048;SDS011;58704;53.358;-6.238;2022-12-29T01:28:18;4.17;;;1.10;;
71048;SDS011;58704;53.358;-6.238;2022-12-29T01:30:43;2.78;;;1.20;;
71048;SDS011;58704;53.358;-6.238;2022-12-29T01:33:08;3.27;;;1.40;;
71048;SDS011;58704;53.358;-6.238;2022-12-29T01:35:34;4.20;;;1.23;;
71048;SDS011;58704;53.358;-6.238;2022-12-29T01:37:59;5.63;;;1.10;;
71048;SDS011;58704;53.358;-6.238;2022-12-29T01:40:25;4.93;;;1.63;;
71048;SDS011;58704;53.358;-6.238;2022-12-29T01:42:50;7.40;;;1.40;;
71048;SDS011;58704;53.358;-6.238;2022-12-29T01:45:16;6.47;;;1.13;;
71048;SDS011;58704;53.358;-6.238;2022-12-29T01:47:44;8.05;;;1.52;;
71048;SDS011;58704;53.358;-6.238;2022-12-29T01:55:22;5.15;;;2.05;;
71048;SDS011;58704;53.358;-6.238;2022-12-29T01:57:48;6.20;;;1.30;;
71048;SDS011;58704;53.358;-6.238;2022-12-29T02:00:16;4.15;;;1.45;;
71048;SDS011;58704;53.358;-6.238;2022-12-29T02:02:42;3.07;;;1.17;;
71048;SDS011;58704;53.358;-6.238;2022-12-29T02:05:11;5.93;;;1.35;;
71048;SDS011;58704;53.358;-6.238;2022-12-29T02:07:41;8.32;;;1.15;;
71048;SDS011;58704;53.358;-6.238;2022-12-29T02:10:07;7.45;;;1.25;;
71048;SDS011;58704;53.358;-6.238;2022-12-29T02:12:33;3.73;;;1.30;;
71048;SDS011;58704;53.358;-6.238;2022-12-29T02:14:59;5.10;;;1.08;;
71048;SDS011;58704;53.358;-6.238;2022-12-29T02:22:53;4.88;;;1.30;;
71048;SDS011;58704;53.358;-6.238;2022-12-29T02:28:05;5.05;;;1.05;;
71048;SDS011;58704;53.358;-6.238;2022-12-29T02:30:45;6.55;;;1.77;;
71048;SDS011;58704;53.358;-6.238;2022-12-29T02:38:42;4.88;;;1.00;;
71048;SDS011;58704;53.358;-6.238;2022-12-29T02:42:19;5.88;;;1.17;;
71048;SDS011;58704;53.358;-6.238;2022-12-29T02:47:11;4.40;;;1.03;;
71048;SDS011;58704;53.358;-6.238;2022-12-29T02:49:53;6.10;;;1.20;;
71048;SDS011;58704;53.358;-6.238;2022-12-29T02:52:25;8.75;;;1.00;;
71048;SDS011;58704;53.358;-6.238;2022-12-29T02:54:54;6.70;;;1.30;;
71048;SDS011;58704;53.358;-6.238;2022-12-29T02:59:45;10.40;;;1.47;;
71048;SDS011;58704;53.358;-6.238;2022-12-29T03:19:02;8.05;;;1.13;;
71048;SDS011;58704;53.358;-6.238;2022-12-29T03:21:38;3.83;;;1.08;;
71048;SDS011;58704;53.358;-6.238;2022-12-29T03:24:25;4.20;;;0.88;;
71048;SDS011;58704;53.358;-6.238;2022-12-29T03:26:53;3.87;;;0.97;;
71048;SDS011;58704;53.358;-6.238;2022-12-29T03:29:20;6.63;;;0.80;;
71048;SDS011;58704;53.358;-6.238;2022-12-29T03:31:46;3.57;;;0.73;;
71048;SDS011;58704;53.358;-6.238;2022-12-29T03:34:13;9.67;;;1.30;;
71048;SDS011;58704;53.358;-6.238;2022-12-29T03:36:54;5.85;;;0.73;;
71048;SDS011;58704;53.358;-6.238;2022-12-29T03:39:24;4.63;;;1.20;;
71048;SDS011;58704;53.358;-6.238;2022-12-29T03:41:51;1.85;;;0.80;;
71048;SDS011;58704;53.358;-6.238;2022-12-29T03:44:21;4.43;;;0.80;;
71048;SDS011;58704;53.358;-6.238;2022-12-29T03:46:46;5.53;;;1.20;;
71048;SDS011;58704;53.358;-6.238;2022-12-29T03:49:12;7.60;;;1.20;;
71048;SDS011;58704;53.358;-6.238;2022-12-29T03:51:37;4.87;;;0.67;;
71048;SDS011;58704;53.358;-6.238;2022-12-29T03:54:02;5.75;;;0.88;;
71048;SDS011;58704;53.358;-6.238;2022-12-29T03:56:28;5.20;;;1.43;;
71048;SDS011;58704;53.358;-6.238;2022-12-29T03:58:53;2.80;;;0.90;;
71048;SDS011;58704;53.358;-6.238;2022-12-29T04:01:19;3.83;;;0.97;;
71048;SDS011;58704;53.358;-6.238;2022-12-29T04:03:44;7.30;;;1.00;;
71048;SDS011;58704;53.358;-6.238;2022-12-29T04:06:10;2.07;;;0.80;;
71048;SDS011;58704;53.358;-6.238;2022-12-29T04:08:35;5.37;;;1.30;;
71048;SDS011;58704;53.358;-6.238;2022-12-29T04:11:00;6.57;;;1.23;;
71048;SDS011;58704;53.358;-6.238;2022-12-29T04:13:26;2.77;;;1.10;;
71048;SDS011;58704;53.358;-6.238;2022-12-29T04:15:51;5.18;;;0.95;;
71048;SDS011;58704;53.358;-6.238;2022-12-29T04:18:17;6.20;;;1.07;;
71048;SDS011;58704;53.358;-6.238;2022-12-29T04:20:42;7.83;;;1.30;;
71048;SDS011;58704;53.358;-6.238;2022-12-29T04:23:28;5.68;;;0.75;;
71048;SDS011;58704;53.358;-6.238;2022-12-29T04:25:54;7.60;;;1.52;;
71048;SDS011;58704;53.358;-6.238;2022-12-29T04:28:20;3.07;;;0.90;;
71048;SDS011;58704;53.358;-6.238;2022-12-29T04:30:46;7.40;;;0.90;;
71048;SDS011;58704;53.358;-6.238;2022-12-29T04:33:11;12.15;;;1.42;;
71048;SDS011;58704;53.358;-6.238;2022-12-29T04:35:37;15.27;;;1.73;;
71048;SDS011;58704;53.358;-6.238;2022-12-29T04:38:03;5.23;;;1.40;;
71048;SDS011;58704;53.358;-6.238;2022-12-29T04:40:28;11.17;;;1.40;;
71048;SDS011;58704;53.358;-6.238;2022-12-29T04:42:54;8.05;;;1.58;;
71048;SDS011;58704;53.358;-6.238;2022-12-29T04:45:19;8.17;;;2.23;;
71048;SDS011;58704;53.358;-6.238;2022-12-29T04:47:45;7.70;;;1.20;;
71048;SDS011;58704;53.358;-6.238;2022-12-29T04:50:10;11.07;;;1.70;;
71048;SDS011;58704;53.358;-6.238;2022-12-29T04:52:35;7.28;;;1.33;;
71048;SDS011;58704;53.358;-6.238;2022-12-29T04:55:01;9.13;;;1.93;;
71048;SDS011;58704;53.358;-6.238;2022-12-29T04:57:26;11.43;;;1.80;;
71048;SDS011;58704;53.358;-6.238;2022-12-29T04:59:52;8.10;;;1.45;;
71048;SDS011;58704;53.358;-6.238;2022-12-29T05:02:18;14.67;;;1.70;;
71048;SDS011;58704;53.358;-6.238;2022-12-29T05:04:43;7.22;;;1.40;;
71048;SDS011;58704;53.358;-6.238;2022-12-29T05:07:09;8.73;;;1.37;;
71048;SDS011;58704;53.358;-6.238;2022-12-29T05:09:35;7.45;;;1.27;;
71048;SDS011;58704;53.358;-6.238;2022-12-29T05:12:00;16.00;;;1.70;;
71048;SDS011;58704;53.358;-6.238;2022-12-29T05:14:26;6.10;;;1.40;;
71048;SDS011;58704;53.358;-6.238;2022-12-29T05:16:51;10.45;;;1.40;;
71048;SDS011;58704;53.358;-6.238;2022-12-29T05:19:17;6.53;;;1.00;;
71048;SDS011;58704;53.358;-6.238;2022-12-29T05:21:42;6.03;;;1.27;;
71048;SDS011;58704;53.358;-6.238;2022-12-29T05:24:08;7.70;;;1.55;;
71048;SDS011;58704;53.358;-6.238;2022-12-29T05:26:33;10.00;;;1.73;;
71048;SDS011;58704;53.358;-6.238;2022-12-29T05:28:59;8.93;;;1.60;;
71048;SDS011;58704;53.358;-6.238;2022-12-29T05:31:25;9.57;;;1.63;;
71048;SDS011;58704;53.358;-6.238;2022-12-29T05:33:50;7.43;;;1.27;;
71048;SDS011;58704;53.358;-6.238;2022-12-29T05:36:16;7.05;;;1.67;;
71048;SDS011;58704;53.358;-6.238;2022-12-29T05:38:41;9.27;;;1.43;;
71048;SDS011;58704;53.358;-6.238;2022-12-29T05:41:07;7.37;;;1.13;;
71048;SDS011;58704;53.358;-6.238;2022-12-29T05:43:32;9.93;;;1.80;;
71048;SDS011;58704;53.358;-6.238;2022-12-29T05:45:57;6.88;;;1.50;;
71048;SDS011;58704;53.358;-6.238;2022-12-29T05:48:23;10.03;;;1.37;;
71048;SDS011;58704;53.358;-6.238;2022-12-29T05:50:49;8.07;;;1.20;;
71048;SDS011;58704;53.358;-6.238;2022-12-29T05:53:15;10.23;;;1.80;;
71048;SDS011;58704;53.358;-6.238;2022-12-29T05:55:41;5.87;;;1.50;;
71048;SDS011;58704;53.358;-6.238;2022-12-29T05:58:06;11.57;;;1.73;;
71048;SDS011;58704;53.358;-6.238;2022-12-29T06:00:31;7.53;;;1.40;;
71048;SDS011;58704;53.358;-6.238;2022-12-29T06:02:57;8.80;;;1.13;;
71048;SDS011;58704;53.358;-6.238;2022-12-29T06:05:22;8.50;;;1.40;;
71048;SDS011;58704;53.358;-6.238;2022-12-29T06:07:48;7.90;;;0.95;;
71048;SDS011;58704;53.358;-6.238;2022-12-29T06:10:13;7.50;;;1.20;;
71048;SDS011;58704;53.358;-6.238;2022-12-29T06:12:39;8.80;;;1.23;;
71048;SDS011;58704;53.358;-6.238;2022-12-29T06:15:04;8.57;;;1.37;;
71048;SDS011;58704;53.358;-6.238;2022-12-29T06:17:30;11.32;;;2.75;;
71048;SDS011;58704;53.358;-6.238;2022-12-29T06:19:56;8.73;;;1.20;;
71048;SDS011;58704;53.358;-6.238;2022-12-29T06:22:21;6.18;;;0.85;;
71048;SDS011;58704;53.358;-6.238;2022-12-29T06:24:46;7.10;;;1.53;;
71048;SDS011;58704;53.358;-6.238;2022-12-29T06:27:12;11.70;;;1.60;;
71048;SDS011;58704;53.358;-6.238;2022-12-29T06:29:38;8.73;;;1.38;;
71048;SDS011;58704;53.358;-6.238;2022-12-29T06:32:05;8.52;;;1.40;;
71048;SDS011;58704;53.358;-6.238;2022-12-29T06:34:31;7.80;;;1.50;;
71048;SDS011;58704;53.358;-6.238;2022-12-29T06:36:56;12.90;;;2.07;;
71048;SDS011;58704;53.358;-6.238;2022-12-29T06:39:22;12.00;;;1.48;;
71048;SDS011;58704;53.358;-6.238;2022-12-29T06:41:47;15.27;;;1.60;;
71048;SDS011;58704;53.358;-6.238;2022-12-29T06:44:13;10.43;;;1.60;;
71048;SDS011;58704;53.358;-6.238;2022-12-29T06:46:38;9.50;;;1.70;;
71048;SDS011;58704;53.358;-6.238;2022-12-29T06:49:03;11.48;;;2.10;;
71048;SDS011;58704;53.358;-6.238;2022-12-29T06:51:29;8.67;;;1.63;;
71048;SDS011;58704;53.358;-6.238;2022-12-29T06:53:54;11.70;;;2.70;;
71048;SDS011;58704;53.358;-6.238;2022-12-29T06:56:20;15.20;;;1.70;;
71048;SDS011;58704;53.358;-6.238;2022-12-29T06:58:45;8.70;;;2.10;;
71048;SDS011;58704;53.358;-6.238;2022-12-29T07:01:10;4.17;;;1.27;;
71048;SDS011;58704;53.358;-6.238;2022-12-29T07:03:36;10.47;;;1.57;;
71048;SDS011;58704;53.358;-6.238;2022-12-29T07:06:01;11.97;;;1.83;;
71048;SDS011;58704;53.358;-6.238;2022-12-29T07:08:27;11.98;;;1.33;;
71048;SDS011;58704;53.358;-6.238;2022-12-29T07:10:52;14.30;;;1.67;;
71048;SDS011;58704;53.358;-6.238;2022-12-29T07:13:18;17.03;;;2.10;;
71048;SDS011;58704;53.358;-6.238;2022-12-29T07:15:43;10.37;;;2.07;;
71048;SDS011;58704;53.358;-6.238;2022-12-29T07:18:09;7.70;;;1.80;;
71048;SDS011;58704;53.358;-6.238;2022-12-29T07:20:34;5.80;;;1.47;;
71048;SDS011;58704;53.358;-6.238;2022-12-29T07:23:00;9.40;;;1.60;;
71048;SDS011;58704;53.358;-6.238;2022-12-29T07:25:25;8.73;;;1.50;;
71048;SDS011;58704;53.358;-6.238;2022-12-29T07:27:50;8.00;;;2.15;;
71048;SDS011;58704;53.358;-6.238;2022-12-29T07:30:16;6.93;;;1.23;;
71048;SDS011;58704;53.358;-6.238;2022-12-29T07:32:41;12.60;;;1.80;;
71048;SDS011;58704;53.358;-6.238;2022-12-29T07:35:08;12.03;;;1.60;;
71048;SDS011;58704;53.358;-6.238;2022-12-29T07:37:34;10.23;;;1.40;;
71048;SDS011;58704;53.358;-6.238;2022-12-29T07:40:00;15.57;;;1.60;;
71048;SDS011;58704;53.358;-6.238;2022-12-29T07:42:26;9.48;;;1.80;;
71048;SDS011;58704;53.358;-6.238;2022-12-29T07:44:51;6.57;;;1.30;;
71048;SDS011;58704;53.358;-6.238;2022-12-29T07:47:17;12.02;;;2.10;;
71048;SDS011;58704;53.358;-6.238;2022-12-29T07:49:42;9.33;;;1.40;;
71048;SDS011;58704;53.358;-6.238;2022-12-29T07:52:08;16.30;;;1.65;;
71048;SDS011;58704;53.358;-6.238;2022-12-29T07:54:33;11.67;;;1.43;;
71048;SDS011;58704;53.358;-6.238;2022-12-29T07:56:59;11.60;;;1.90;;
71048;SDS011;58704;53.358;-6.238;2022-12-29T07:59:25;5.65;;;1.33;;
71048;SDS011;58704;53.358;-6.238;2022-12-29T08:01:51;7.93;;;1.20;;
71048;SDS011;58704;53.358;-6.238;2022-12-29T08:04:16;6.77;;;1.47;;
71048;SDS011;58704;53.358;-6.238;2022-12-29T08:06:42;13.27;;;2.17;;
71048;SDS011;58704;53.358;-6.238;2022-12-29T08:09:07;7.57;;;1.93;;
71048;SDS011;58704;53.358;-6.238;2022-12-29T08:11:33;13.00;;;1.42;;
71048;SDS011;58704;53.358;-6.238;2022-12-29T08:13:58;6.77;;;1.50;;
71048;SDS011;58704;53.358;-6.238;2022-12-29T08:16:24;6.53;;;1.00;;
71048;SDS011;58704;53.358;-6.238;2022-12-29T08:18:49;7.22;;;1.30;;
71048;SDS011;58704;53.358;-6.238;2022-12-29T08:21:15;8.97;;;1.70;;
71048;SDS011;58704;53.358;-6.238;2022-12-29T08:23:40;5.70;;;1.47;;
71048;SDS011;58704;53.358;-6.238;2022-12-29T08:26:06;8.90;;;1.83;;
71048;SDS011;58704;53.358;-6.238;2022-12-29T08:28:32;7.53;;;1.20;;
71048;SDS011;58704;53.358;-6.238;2022-12-29T08:30:58;12.68;;;1.63;;
71048;SDS011;58704;53.358;-6.238;2022-12-29T08:33:24;4.07;;;1.10;;
71048;SDS011;58704;53.358;-6.238;2022-12-29T08:35:51;4.60;;;1.13;;
71048;SDS011;58704;53.358;-6.238;2022-12-29T08:38:16;11.67;;;2.37;;
71048;SDS011;58704;53.358;-6.238;2022-12-29T08:40:43;4.07;;;0.90;;
71048;SDS011;58704;53.358;-6.238;2022-12-29T08:43:08;7.28;;;1.30;;
71048;SDS011;58704;53.358;-6.238;2022-12-29T08:45:34;9.07;;;1.57;;
71048;SDS011;58704;53.358;-6.238;2022-12-29T08:47:59;10.43;;;1.23;;
71048;SDS011;58704;53.358;-6.238;2022-12-29T08:50:25;5.20;;;1.20;;
71048;SDS011;58704;53.358;-6.238;2022-12-29T08:52:50;8.77;;;1.03;;
71048;SDS011;58704;53.358;-6.238;2022-12-29T08:55:16;7.80;;;1.40;;
71048;SDS011;58704;53.358;-6.238;2022-12-29T08:57:42;3.57;;;1.20;;
71048;SDS011;58704;53.358;-6.238;2022-12-29T09:00:10;11.20;;;1.40;;
71048;SDS011;58704;53.358;-6.238;2022-12-29T09:02:36;10.85;;;1.80;;
71048;SDS011;58704;53.358;-6.238;2022-12-29T09:05:02;7.43;;;1.20;;
71048;SDS011;58704;53.358;-6.238;2022-12-29T09:07:32;8.55;;;1.15;;
71048;SDS011;58704;53.358;-6.238;2022-12-29T09:09:58;4.47;;;1.27;;
71048;SDS011;58704;53.358;-6.238;2022-12-29T09:12:23;9.27;;;2.07;;
71048;SDS011;58704;53.358;-6.238;2022-12-29T09:14:51;8.70;;;1.52;;
71048;SDS011;58704;53.358;-6.238;2022-12-29T09:17:17;6.00;;;1.00;;
71048;SDS011;58704;53.358;-6.238;2022-12-29T09:20:01;10.82;;;1.35;;
71048;SDS011;58704;53.358;-6.238;2022-12-29T09:22:27;5.55;;;1.63;;
71048;SDS011;58704;53.358;-6.238;2022-12-29T09:24:52;4.37;;;1.20;;
71048;SDS011;58704;53.358;-6.238;2022-12-29T09:27:18;5.77;;;1.23;;
71048;SDS011;58704;53.358;-6.238;2022-12-29T09:29:43;9.00;;;1.40;;
71048;SDS011;58704;53.358;-6.238;2022-12-29T09:32:08;8.17;;;1.37;;
71048;SDS011;58704;53.358;-6.238;2022-12-29T09:34:34;5.80;;;1.13;;
71048;SDS011;58704;53.358;-6.238;2022-12-29T09:36:59;8.97;;;1.70;;
71048;SDS011;58704;53.358;-6.238;2022-12-29T09:39:25;6.90;;;2.08;;
71048;SDS011;58704;53.358;-6.238;2022-12-29T09:42:01;8.37;;;1.90;;
71048;SDS011;58704;53.358;-6.238;2022-12-29T09:46:55;7.20;;;1.67;;
71048;SDS011;58704;53.358;-6.238;2022-12-29T09:52:13;7.72;;;1.27;;
71048;SDS011;58704;53.358;-6.238;2022-12-29T09:55:10;5.50;;;1.63;;
71048;SDS011;58704;53.358;-6.238;2022-12-29T10:08:24;6.93;;;1.30;;
71048;SDS011;58704;53.358;-6.238;2022-12-29T10:13:51;8.70;;;1.50;;
71048;SDS011;58704;53.358;-6.238;2022-12-29T10:24:46;11.20;;;1.40;;
71048;SDS011;58704;53.358;-6.238;2022-12-29T10:27:12;4.95;;;1.40;;
71048;SDS011;58704;53.358;-6.238;2022-12-29T10:29:48;6.47;;;1.15;;
71048;SDS011;58704;53.358;-6.238;2022-12-29T10:34:51;5.77;;;1.27;;
71048;SDS011;58704;53.358;-6.238;2022-12-29T10:37:27;9.02;;;1.65;;
71048;SDS011;58704;53.358;-6.238;2022-12-29T10:40:18;8.68;;;1.75;;
71048;SDS011;58704;53.358;-6.238;2022-12-29T10:42:54;8.43;;;1.38;;
71048;SDS011;58704;53.358;-6.238;2022-12-29T10:45:21;7.25;;;1.48;;
71048;SDS011;58704;53.358;-6.238;2022-12-29T10:47:57;9.90;;;1.70;;
71048;SDS011;58704;53.358;-6.238;2022-12-29T10:50:28;8.93;;;1.90;;
71048;SDS011;58704;53.358;-6.238;2022-12-29T10:52:54;7.35;;;1.60;;
71048;SDS011;58704;53.358;-6.238;2022-12-29T10:55:25;7.85;;;1.80;;
71048;SDS011;58704;53.358;-6.238;2022-12-29T10:57:53;10.30;;;1.35;;
71048;SDS011;58704;53.358;-6.238;2022-12-29T11:00:20;6.97;;;1.77;;
71048;SDS011;58704;53.358;-6.238;2022-12-29T11:07:58;7.03;;;1.65;;
71048;SDS011;58704;53.358;-6.238;2022-12-29T11:12:59;15.00;;;1.77;;
71048;SDS011;58704;53.358;-6.238;2022-12-29T11:18:34;7.80;;;1.40;;
71048;SDS011;58704;53.358;-6.238;2022-12-29T11:21:36;4.90;;;1.52;;
71048;SDS011;58704;53.358;-6.238;2022-12-29T11:26:54;5.37;;;1.37;;
71048;SDS011;58704;53.358;-6.238;2022-12-29T11:29:51;6.70;;;1.27;;
71048;SDS011;58704;53.358;-6.238;2022-12-29T11:32:39;5.10;;;1.50;;
71048;SDS011;58704;53.358;-6.238;2022-12-29T11:39:01;4.55;;;1.10;;
71048;SDS011;58704;53.358;-6.238;2022-12-29T11:41:55;5.17;;;1.13;;
71048;SDS011;58704;53.358;-6.238;2022-12-29T11:44:38;6.15;;;1.30;;
71048;SDS011;58704;53.358;-6.238;2022-12-29T11:47:34;5.32;;;1.33;;
71048;SDS011;58704;53.358;-6.238;2022-12-29T11:53:45;3.05;;;1.10;;
71048;SDS011;58704;53.358;-6.238;2022-12-29T11:56:37;5.50;;;1.43;;
71048;SDS011;58704;53.358;-6.238;2022-12-29T11:59:56;2.22;;;0.95;;
71048;SDS011;58704;53.358;-6.238;2022-12-29T12:02:53;2.40;;;1.13;;
71048;SDS011;58704;53.358;-6.238;2022-12-29T12:08:51;3.53;;;0.88;;
71048;SDS011;58704;53.358;-6.238;2022-12-29T12:17:12;3.83;;;1.10;;
71048;SDS011;58704;53.358;-6.238;2022-12-29T12:25:51;7.33;;;1.50;;
71048;SDS011;58704;53.358;-6.238;2022-12-29T12:35:11;7.50;;;1.45;;
71048;SDS011;58704;53.358;-6.238;2022-12-29T12:52:10;5.22;;;1.55;;
71048;SDS011;58704;53.358;-6.238;2022-12-29T13:11:25;10.40;;;2.70;;
71048;SDS011;58704;53.358;-6.238;2022-12-29T13:16:43;6.55;;;1.70;;
71048;SDS011;58704;53.358;-6.238;2022-12-29T13:19:37;8.50;;;1.67;;
71048;SDS011;58704;53.358;-6.238;2022-12-29T13:22:08;6.90;;;2.03;;
71048;SDS011;58704;53.358;-6.238;2022-12-29T13:24:59;8.02;;;1.77;;
71048;SDS011;58704;53.358;-6.238;2022-12-29T13:27:51;7.97;;;2.22;;
71048;SDS011;58704;53.358;-6.238;2022-12-29T13:30:28;5.85;;;1.60;;
71048;SDS011;58704;53.358;-6.238;2022-12-29T13:38:35;4.10;;;1.30;;
71048;SDS011;58704;53.358;-6.238;2022-12-29T13:41:05;7.45;;;2.58;;
71048;SDS011;58704;53.358;-6.238;2022-12-29T13:43:32;4.13;;;1.30;;
71048;SDS011;58704;53.358;-6.238;2022-12-29T13:46:02;3.10;;;1.50;;
71048;SDS011;58704;53.358;-6.238;2022-12-29T13:48:35;4.50;;;1.30;;
71048;SDS011;58704;53.358;-6.238;2022-12-29T13:51:21;4.40;;;1.30;;
71048;SDS011;58704;53.358;-6.238;2022-12-29T13:56:20;3.53;;;1.10;;
71048;SDS011;58704;53.358;-6.238;2022-12-29T14:01:35;5.20;;;1.30;;
71048;SDS011;58704;53.358;-6.238;2022-12-29T14:04:10;4.88;;;1.40;;
71048;SDS011;58704;53.358;-6.238;2022-12-29T14:06:37;4.57;;;1.15;;
71048;SDS011;58704;53.358;-6.238;2022-12-29T14:09:06;3.20;;;1.23;;
71048;SDS011;58704;53.358;-6.238;2022-12-29T14:11:51;3.45;;;1.10;;
71048;SDS011;58704;53.358;-6.238;2022-12-29T14:16:50;2.13;;;1.13;;
71048;SDS011;58704;53.358;-6.238;2022-12-29T14:22:01;4.40;;;1.20;;
71048;SDS011;58704;53.358;-6.238;2022-12-29T14:24:38;3.20;;;0.98;;
71048;SDS011;58704;53.358;-6.238;2022-12-29T14:32:50;5.40;;;1.30;;
71048;SDS011;58704;53.358;-6.238;2022-12-29T14:34:54;2.03;;;0.97;;
71048;SDS011;58704;53.358;-6.238;2022-12-29T14:42:27;5.95;;;1.40;;
71048;SDS011;58704;53.358;-6.238;2022-12-29T14:44:58;3.25;;;1.23;;
71048;SDS011;58704;53.358;-6.238;2022-12-29T14:47:27;3.67;;;1.70;;
71048;SDS011;58704;53.358;-6.238;2022-12-29T14:57:43;5.10;;;1.73;;
71048;SDS011;58704;53.358;-6.238;2022-12-29T15:00:18;9.03;;;2.23;;
71048;SDS011;58704;53.358;-6.238;2022-12-29T15:02:48;5.45;;;1.48;;
71048;SDS011;58704;53.358;-6.238;2022-12-29T15:05:30;3.75;;;1.50;;
71048;SDS011;58704;53.358;-6.238;2022-12-29T15:07:56;5.15;;;1.52;;
71048;SDS011;58704;53.358;-6.238;2022-12-29T15:10:22;4.80;;;1.40;;
71048;SDS011;58704;53.358;-6.238;2022-12-29T15:12:53;4.67;;;1.63;;
71048;SDS011;58704;53.358;-6.238;2022-12-29T15:17:44;8.60;;;1.57;;
71048;SDS011;58704;53.358;-6.238;2022-12-29T15:20:16;5.47;;;1.57;;
71048;SDS011;58704;53.358;-6.238;2022-12-29T15:22:48;7.40;;;1.52;;
71048;SDS011;58704;53.358;-6.238;2022-12-29T15:25:19;3.03;;;1.50;;
71048;SDS011;58704;53.358;-6.238;2022-12-29T15:27:51;5.13;;;1.40;;
71048;SDS011;58704;53.358;-6.238;2022-12-29T15:30:22;3.42;;;1.38;;
71048;SDS011;58704;53.358;-6.238;2022-12-29T15:32:49;7.72;;;1.40;;
71048;SDS011;58704;53.358;-6.238;2022-12-29T15:35:36;5.40;;;1.67;;
71048;SDS011;58704;53.358;-6.238;2022-12-29T15:38:12;6.13;;;1.20;;
71048;SDS011;58704;53.358;-6.238;2022-12-29T15:40:40;5.20;;;1.48;;
71048;SDS011;58704;53.358;-6.238;2022-12-29T15:43:23;2.03;;;1.10;;
71048;SDS011;58704;53.358;-6.238;2022-12-29T15:46:02;4.53;;;1.15;;
71048;SDS011;58704;53.358;-6.238;2022-12-29T15:48:28;5.50;;;1.77;;
71048;SDS011;58704;53.358;-6.238;2022-12-29T15:50:54;4.45;;;1.30;;
71048;SDS011;58704;53.358;-6.238;2022-12-29T15:53:29;6.37;;;1.50;;
71048;SDS011;58704;53.358;-6.238;2022-12-29T15:55:58;4.32;;;1.60;;
71048;SDS011;58704;53.358;-6.238;2022-12-29T15:58:27;3.17;;;1.55;;
71048;SDS011;58704;53.358;-6.238;2022-12-29T16:00:58;4.90;;;1.73;;
71048;SDS011;58704;53.358;-6.238;2022-12-29T16:03:25;5.40;;;2.23;;
71048;SDS011;58704;53.358;-6.238;2022-12-29T16:05:53;6.50;;;2.35;;
71048;SDS011;58704;53.358;-6.238;2022-12-29T16:08:23;7.35;;;2.40;;
71048;SDS011;58704;53.358;-6.238;2022-12-29T16:10:52;6.05;;;2.40;;
71048;SDS011;58704;53.358;-6.238;2022-12-29T16:13:39;8.70;;;2.38;;
71048;SDS011;58704;53.358;-6.238;2022-12-29T16:18:47;3.65;;;1.90;;
71048;SDS011;58704;53.358;-6.238;2022-12-29T16:21:20;8.43;;;2.07;;
71048;SDS011;58704;53.358;-6.238;2022-12-29T16:23:50;6.28;;;2.00;;
71048;SDS011;58704;53.358;-6.238;2022-12-29T16:26:24;4.28;;;1.90;;
71048;SDS011;58704;53.358;-6.238;2022-12-29T16:29:05;4.20;;;2.08;;
71048;SDS011;58704;53.358;-6.238;2022-12-29T16:31:57;5.25;;;2.28;;
71048;SDS011;58704;53.358;-6.238;2022-12-29T16:34:42;6.20;;;1.67;;
71048;SDS011;58704;53.358;-6.238;2022-12-29T16:37:30;10.07;;;3.80;;
71048;SDS011;58704;53.358;-6.238;2022-12-29T16:42:54;6.50;;;3.08;;
71048;SDS011;58704;53.358;-6.238;2022-12-29T16:45:38;13.25;;;4.63;;
71048;SDS011;58704;53.358;-6.238;2022-12-29T16:48:18;13.37;;;4.43;;
71048;SDS011;58704;53.358;-6.238;2022-12-29T16:50:49;14.43;;;4.30;;
71048;SDS011;58704;53.358;-6.238;2022-12-29T16:55:49;5.68;;;2.88;;
71048;SDS011;58704;53.358;-6.238;2022-12-29T16:58:28;11.00;;;3.65;;
71048;SDS011;58704;53.358;-6.238;2022-12-29T17:01:04;8.87;;;3.20;;
71048;SDS011;58704;53.358;-6.238;2022-12-29T17:03:37;9.65;;;3.53;;
71048;SDS011;58704;53.358;-6.238;2022-12-29T17:06:18;14.27;;;4.82;;
71048;SDS011;58704;53.358;-6.238;2022-12-29T17:08:45;10.52;;;3.50;;
71048;SDS011;58704;53.358;-6.238;2022-12-29T17:11:22;11.15;;;3.63;;
71048;SDS011;58704;53.358;-6.238;2022-12-29T17:17:02;9.80;;;2.78;;
71048;SDS011;58704;53.358;-6.238;2022-12-29T17:19:31;9.85;;;3.53;;
71048;SDS011;58704;53.358;-6.238;2022-12-29T17:22:31;7.35;;;3.00;;
71048;SDS011;58704;53.358;-6.238;2022-12-29T17:25:11;10.43;;;4.65;;
71048;SDS011;58704;53.358;-6.238;2022-12-29T17:27:44;9.57;;;4.73;;
71048;SDS011;58704;53.358;-6.238;2022-12-29T17:30:23;8.55;;;5.00;;
71048;SDS011;58704;53.358;-6.238;2022-12-29T17:33:14;13.27;;;3.67;;
71048;SDS011;58704;53.358;-6.238;2022-12-29T17:36:39;8.90;;;3.97;;
71048;SDS011;58704;53.358;-6.238;2022-12-29T17:39:09;11.27;;;4.10;;
71048;SDS011;58704;53.358;-6.238;2022-12-29T17:41:38;10.23;;;5.13;;
71048;SDS011;58704;53.358;-6.238;2022-12-29T17:44:04;8.60;;;3.78;;
71048;SDS011;58704;53.358;-6.238;2022-12-29T17:46:30;9.93;;;4.43;;
71048;SDS011;58704;53.358;-6.238;2022-12-29T17:48:56;9.77;;;3.87;;
71048;SDS011;58704;53.358;-6.238;2022-12-29T17:51:22;10.88;;;4.90;;
71048;SDS011;58704;53.358;-6.238;2022-12-29T17:53:48;5.73;;;3.83;;
71048;SDS011;58704;53.358;-6.238;2022-12-29T17:56:15;10.68;;;3.95;;
71048;SDS011;58704;53.358;-6.238;2022-12-29T17:58:41;8.07;;;3.90;;
71048;SDS011;58704;53.358;-6.238;2022-12-29T18:01:08;9.55;;;2.95;;
71048;SDS011;58704;53.358;-6.238;2022-12-29T18:03:35;7.97;;;3.10;;
71048;SDS011;58704;53.358;-6.238;2022-12-29T18:06:02;7.43;;;3.13;;
71048;SDS011;58704;53.358;-6.238;2022-12-29T18:08:35;7.60;;;3.25;;